sensor_id;sensor_type;location;lat;lon;timestamp;P1;durP1;ratioP1;P2;durP2;ratioP2
13048;SDS011;6591;51.446;5.404;2023-04-25T00:02:25;8.10;;;4.13;;
13048;SDS011;6591;51.446;5.404;2023-04-25T00:04:52;8.27;;;4.47;;
13048;SDS011;6591;51.446;5.404;2023-04-25T00:07:20;6.93;;;4.20;;
13048;SDS011;6591;51.446;5.404;2023-04-25T00:09:47;10.60;;;4.70;;
13048;SDS011;6591;51.446;5.404;2023-04-25T00:12:14;8.67;;;4.23;;
13048;SDS011;6591;51.446;5.404;2023-04-25T00:14:42;7.73;;;4.60;;
13048;SDS011;6591;51.446;5.404;2023-04-25T00:17:10;12.63;;;5.00;;
13048;SDS011;6591;51.446;5.404;2023-04-25T00:19:37;9.50;;;5.00;;
13048;SDS011;6591;51.446;5.404;2023-04-25T00:22:04;9.93;;;4.83;;
13048;SDS011;6591;51.446;5.404;2023-04-25T00:24:31;11.97;;;4.97;;
13048;SDS011;6591;51.446;5.404;2023-04-25T00:26:58;7.97;;;4.03;;
13048;SDS011;6591;51.446;5.404;2023-04-25T00:29:25;9.30;;;4.33;;
13048;SDS011;6591;51.446;5.404;2023-04-25T00:31:52;8.10;;;4.57;;
13048;SDS011;6591;51.446;5.404;2023-04-25T00:34:19;10.67;;;5.10;;
13048;SDS011;6591;51.446;5.404;2023-04-25T00:36:47;13.90;;;5.20;;
13048;SDS011;6591;51.446;5.404;2023-04-25T00:39:14;6.77;;;4.50;;
13048;SDS011;6591;51.446;5.404;2023-04-25T00:41:41;10.17;;;4.57;;
13048;SDS011;6591;51.446;5.404;2023-04-25T00:44:09;12.57;;;4.27;;
13048;SDS011;6591;51.446;5.404;2023-04-25T00:46:38;7.53;;;4.20;;
13048;SDS011;6591;51.446;5.404;2023-04-25T00:49:06;8.13;;;4.10;;
13048;SDS011;6591;51.446;5.404;2023-04-25T00:51:33;9.60;;;4.43;;
13048;SDS011;6591;51.446;5.404;2023-04-25T00:54:00;10.00;;;4.33;;
13048;SDS011;6591;51.446;5.404;2023-04-25T00:56:28;11.50;;;4.93;;
13048;SDS011;6591;51.446;5.404;2023-04-25T00:58:55;10.03;;;4.60;;
13048;SDS011;6591;51.446;5.404;2023-04-25T01:01:23;10.27;;;4.27;;
13048;SDS011;6591;51.446;5.404;2023-04-25T01:03:51;9.57;;;4.70;;
13048;SDS011;6591;51.446;5.404;2023-04-25T01:06:21;9.53;;;4.47;;
13048;SDS011;6591;51.446;5.404;2023-04-25T01:08:48;7.50;;;4.50;;
13048;SDS011;6591;51.446;5.404;2023-04-25T01:11:16;10.30;;;4.37;;
13048;SDS011;6591;51.446;5.404;2023-04-25T01:13:43;9.20;;;4.77;;
13048;SDS011;6591;51.446;5.404;2023-04-25T01:16:10;9.93;;;4.70;;
13048;SDS011;6591;51.446;5.404;2023-04-25T01:18:40;9.77;;;4.40;;
13048;SDS011;6591;51.446;5.404;2023-04-25T01:21:09;10.23;;;4.67;;
13048;SDS011;6591;51.446;5.404;2023-04-25T01:23:40;7.83;;;4.43;;
13048;SDS011;6591;51.446;5.404;2023-04-25T01:26:09;9.57;;;4.10;;
13048;SDS011;6591;51.446;5.404;2023-04-25T01:28:38;10.50;;;5.00;;
13048;SDS011;6591;51.446;5.404;2023-04-25T01:31:11;11.77;;;5.03;;
13048;SDS011;6591;51.446;5.404;2023-04-25T01:33:38;9.13;;;4.90;;
13048;SDS011;6591;51.446;5.404;2023-04-25T01:36:05;8.07;;;4.50;;
13048;SDS011;6591;51.446;5.404;2023-04-25T01:38:34;12.10;;;4.50;;
13048;SDS011;6591;51.446;5.404;2023-04-25T01:41:01;10.80;;;5.43;;
13048;SDS011;6591;51.446;5.404;2023-04-25T01:43:29;11.20;;;5.10;;
13048;SDS011;6591;51.446;5.404;2023-04-25T01:45:56;8.70;;;5.20;;
13048;SDS011;6591;51.446;5.404;2023-04-25T01:48:23;9.67;;;5.00;;
13048;SDS011;6591;51.446;5.404;2023-04-25T01:50:50;10.60;;;5.07;;
13048;SDS011;6591;51.446;5.404;2023-04-25T01:53:18;11.27;;;5.80;;
13048;SDS011;6591;51.446;5.404;2023-04-25T01:55:45;11.27;;;5.47;;
13048;SDS011;6591;51.446;5.404;2023-04-25T01:58:14;11.00;;;5.33;;
13048;SDS011;6591;51.446;5.404;2023-04-25T02:00:57;11.53;;;5.30;;
13048;SDS011;6591;51.446;5.404;2023-04-25T02:03:30;10.40;;;5.07;;
13048;SDS011;6591;51.446;5.404;2023-04-25T02:06:01;12.63;;;5.37;;
13048;SDS011;6591;51.446;5.404;2023-04-25T02:08:30;10.70;;;4.90;;
13048;SDS011;6591;51.446;5.404;2023-04-25T02:10:57;10.47;;;5.07;;
13048;SDS011;6591;51.446;5.404;2023-04-25T02:13:31;8.97;;;5.03;;
13048;SDS011;6591;51.446;5.404;2023-04-25T02:16:20;9.23;;;5.40;;
13048;SDS011;6591;51.446;5.404;2023-04-25T02:18:48;13.20;;;5.50;;
13048;SDS011;6591;51.446;5.404;2023-04-25T02:21:15;8.37;;;4.70;;
13048;SDS011;6591;51.446;5.404;2023-04-25T02:23:42;13.80;;;5.80;;
13048;SDS011;6591;51.446;5.404;2023-04-25T02:26:11;9.00;;;5.53;;
13048;SDS011;6591;51.446;5.404;2023-04-25T02:28:41;12.33;;;5.77;;
13048;SDS011;6591;51.446;5.404;2023-04-25T02:31:08;10.10;;;5.30;;
13048;SDS011;6591;51.446;5.404;2023-04-25T02:33:35;12.47;;;5.67;;
13048;SDS011;6591;51.446;5.404;2023-04-25T02:36:04;10.93;;;5.03;;
13048;SDS011;6591;51.446;5.404;2023-04-25T02:38:31;8.97;;;5.57;;
13048;SDS011;6591;51.446;5.404;2023-04-25T02:40:58;6.90;;;4.60;;
13048;SDS011;6591;51.446;5.404;2023-04-25T02:43:25;9.70;;;4.93;;
13048;SDS011;6591;51.446;5.404;2023-04-25T02:45:52;14.23;;;5.83;;
13048;SDS011;6591;51.446;5.404;2023-04-25T02:48:20;11.90;;;5.63;;
13048;SDS011;6591;51.446;5.404;2023-04-25T02:50:47;13.90;;;5.40;;
13048;SDS011;6591;51.446;5.404;2023-04-25T02:53:14;10.07;;;5.43;;
13048;SDS011;6591;51.446;5.404;2023-04-25T02:55:46;9.23;;;4.77;;
13048;SDS011;6591;51.446;5.404;2023-04-25T02:58:13;11.37;;;5.43;;
13048;SDS011;6591;51.446;5.404;2023-04-25T03:00:45;10.40;;;5.33;;
13048;SDS011;6591;51.446;5.404;2023-04-25T03:03:12;11.77;;;5.20;;
13048;SDS011;6591;51.446;5.404;2023-04-25T03:05:40;10.53;;;4.97;;
13048;SDS011;6591;51.446;5.404;2023-04-25T03:08:07;10.33;;;5.30;;
13048;SDS011;6591;51.446;5.404;2023-04-25T03:10:36;9.67;;;5.17;;
13048;SDS011;6591;51.446;5.404;2023-04-25T03:13:06;7.77;;;4.73;;
13048;SDS011;6591;51.446;5.404;2023-04-25T03:15:33;11.43;;;4.93;;
13048;SDS011;6591;51.446;5.404;2023-04-25T03:18:01;11.60;;;5.23;;
13048;SDS011;6591;51.446;5.404;2023-04-25T03:20:29;13.57;;;5.30;;
13048;SDS011;6591;51.446;5.404;2023-04-25T03:22:56;10.10;;;4.83;;
13048;SDS011;6591;51.446;5.404;2023-04-25T03:25:23;11.10;;;5.57;;
13048;SDS011;6591;51.446;5.404;2023-04-25T03:27:50;10.13;;;4.70;;
13048;SDS011;6591;51.446;5.404;2023-04-25T03:30:17;9.50;;;5.10;;
13048;SDS011;6591;51.446;5.404;2023-04-25T03:32:44;7.80;;;4.80;;
13048;SDS011;6591;51.446;5.404;2023-04-25T03:35:15;10.37;;;4.90;;
13048;SDS011;6591;51.446;5.404;2023-04-25T03:37:42;14.53;;;5.37;;
13048;SDS011;6591;51.446;5.404;2023-04-25T03:40:17;8.17;;;4.40;;
13048;SDS011;6591;51.446;5.404;2023-04-25T03:43:07;11.53;;;5.43;;
13048;SDS011;6591;51.446;5.404;2023-04-25T03:45:35;13.70;;;5.13;;
13048;SDS011;6591;51.446;5.404;2023-04-25T03:48:02;9.40;;;4.93;;
13048;SDS011;6591;51.446;5.404;2023-04-25T03:50:29;9.17;;;5.03;;
13048;SDS011;6591;51.446;5.404;2023-04-25T03:52:56;9.60;;;5.10;;
13048;SDS011;6591;51.446;5.404;2023-04-25T03:55:26;10.87;;;4.80;;
13048;SDS011;6591;51.446;5.404;2023-04-25T03:57:53;10.17;;;4.90;;
13048;SDS011;6591;51.446;5.404;2023-04-25T04:00:21;10.83;;;4.90;;
13048;SDS011;6591;51.446;5.404;2023-04-25T04:02:50;11.37;;;4.70;;
13048;SDS011;6591;51.446;5.404;2023-04-25T04:05:18;12.63;;;5.13;;
13048;SDS011;6591;51.446;5.404;2023-04-25T04:07:52;9.87;;;5.10;;
13048;SDS011;6591;51.446;5.404;2023-04-25T04:10:21;9.30;;;5.27;;
13048;SDS011;6591;51.446;5.404;2023-04-25T04:12:48;9.13;;;4.90;;
13048;SDS011;6591;51.446;5.404;2023-04-25T04:15:16;11.83;;;5.47;;
13048;SDS011;6591;51.446;5.404;2023-04-25T04:17:45;11.03;;;5.17;;
13048;SDS011;6591;51.446;5.404;2023-04-25T04:20:13;9.83;;;4.83;;
13048;SDS011;6591;51.446;5.404;2023-04-25T04:22:40;13.43;;;5.67;;
13048;SDS011;6591;51.446;5.404;2023-04-25T04:25:10;11.30;;;5.07;;
13048;SDS011;6591;51.446;5.404;2023-04-25T04:27:57;10.33;;;4.87;;
13048;SDS011;6591;51.446;5.404;2023-04-25T04:30:45;11.40;;;5.17;;
13048;SDS011;6591;51.446;5.404;2023-04-25T04:33:12;11.67;;;5.67;;
13048;SDS011;6591;51.446;5.404;2023-04-25T04:35:42;11.57;;;4.97;;
13048;SDS011;6591;51.446;5.404;2023-04-25T04:38:10;11.07;;;5.57;;
13048;SDS011;6591;51.446;5.404;2023-04-25T04:40:38;11.77;;;5.03;;
13048;SDS011;6591;51.446;5.404;2023-04-25T04:43:11;7.23;;;5.00;;
13048;SDS011;6591;51.446;5.404;2023-04-25T04:45:56;11.33;;;5.20;;
13048;SDS011;6591;51.446;5.404;2023-04-25T04:48:38;10.90;;;5.43;;
13048;SDS011;6591;51.446;5.404;2023-04-25T04:51:20;10.87;;;6.00;;
13048;SDS011;6591;51.446;5.404;2023-04-25T04:53:53;19.57;;;6.30;;
13048;SDS011;6591;51.446;5.404;2023-04-25T04:56:47;13.73;;;5.17;;
13048;SDS011;6591;51.446;5.404;2023-04-25T04:59:27;11.87;;;5.40;;
13048;SDS011;6591;51.446;5.404;2023-04-25T05:02:18;9.53;;;5.17;;
13048;SDS011;6591;51.446;5.404;2023-04-25T05:05:04;10.23;;;5.50;;
13048;SDS011;6591;51.446;5.404;2023-04-25T05:07:54;13.07;;;5.43;;
13048;SDS011;6591;51.446;5.404;2023-04-25T05:10:40;10.43;;;5.40;;
13048;SDS011;6591;51.446;5.404;2023-04-25T05:13:43;8.47;;;4.67;;
13048;SDS011;6591;51.446;5.404;2023-04-25T05:16:17;8.63;;;4.73;;
13048;SDS011;6591;51.446;5.404;2023-04-25T05:18:56;13.60;;;5.47;;
13048;SDS011;6591;51.446;5.404;2023-04-25T05:21:31;10.17;;;5.80;;
13048;SDS011;6591;51.446;5.404;2023-04-25T05:24:16;8.37;;;4.83;;
13048;SDS011;6591;51.446;5.404;2023-04-25T05:26:49;11.63;;;4.87;;
13048;SDS011;6591;51.446;5.404;2023-04-25T05:29:46;11.47;;;5.40;;
13048;SDS011;6591;51.446;5.404;2023-04-25T05:32:21;10.83;;;5.43;;
13048;SDS011;6591;51.446;5.404;2023-04-25T05:34:49;12.13;;;4.90;;
13048;SDS011;6591;51.446;5.404;2023-04-25T05:37:22;7.80;;;5.27;;
13048;SDS011;6591;51.446;5.404;2023-04-25T05:39:54;10.47;;;5.40;;
13048;SDS011;6591;51.446;5.404;2023-04-25T05:42:39;12.77;;;5.20;;
13048;SDS011;6591;51.446;5.404;2023-04-25T05:45:27;11.00;;;4.50;;
13048;SDS011;6591;51.446;5.404;2023-04-25T05:48:03;10.77;;;4.97;;
13048;SDS011;6591;51.446;5.404;2023-04-25T05:51:02;10.33;;;5.43;;
13048;SDS011;6591;51.446;5.404;2023-04-25T05:53:59;12.20;;;5.83;;
13048;SDS011;6591;51.446;5.404;2023-04-25T05:56:26;12.63;;;5.67;;
13048;SDS011;6591;51.446;5.404;2023-04-25T05:58:54;8.93;;;5.27;;
13048;SDS011;6591;51.446;5.404;2023-04-25T06:01:22;11.23;;;5.27;;
13048;SDS011;6591;51.446;5.404;2023-04-25T06:03:49;10.43;;;5.37;;
13048;SDS011;6591;51.446;5.404;2023-04-25T06:06:19;10.57;;;5.70;;
13048;SDS011;6591;51.446;5.404;2023-04-25T06:08:46;8.97;;;5.20;;
13048;SDS011;6591;51.446;5.404;2023-04-25T06:11:13;9.93;;;5.23;;
13048;SDS011;6591;51.446;5.404;2023-04-25T06:13:40;12.70;;;5.80;;
13048;SDS011;6591;51.446;5.404;2023-04-25T06:16:07;10.67;;;5.20;;
13048;SDS011;6591;51.446;5.404;2023-04-25T06:18:34;10.70;;;5.60;;
13048;SDS011;6591;51.446;5.404;2023-04-25T06:21:02;10.03;;;5.40;;
13048;SDS011;6591;51.446;5.404;2023-04-25T06:23:29;14.87;;;5.47;;
13048;SDS011;6591;51.446;5.404;2023-04-25T06:26:01;11.27;;;4.97;;
13048;SDS011;6591;51.446;5.404;2023-04-25T06:28:30;14.30;;;5.67;;
13048;SDS011;6591;51.446;5.404;2023-04-25T06:30:57;14.63;;;5.67;;
13048;SDS011;6591;51.446;5.404;2023-04-25T06:33:24;12.50;;;4.77;;
13048;SDS011;6591;51.446;5.404;2023-04-25T06:35:52;12.80;;;4.70;;
13048;SDS011;6591;51.446;5.404;2023-04-25T06:38:23;10.90;;;4.50;;
13048;SDS011;6591;51.446;5.404;2023-04-25T06:40:51;11.70;;;4.40;;
13048;SDS011;6591;51.446;5.404;2023-04-25T06:43:18;9.20;;;4.00;;
13048;SDS011;6591;51.446;5.404;2023-04-25T06:46:24;10.40;;;3.77;;
13048;SDS011;6591;51.446;5.404;2023-04-25T06:48:53;12.87;;;4.70;;
13048;SDS011;6591;51.446;5.404;2023-04-25T06:51:20;8.90;;;3.20;;
13048;SDS011;6591;51.446;5.404;2023-04-25T06:53:53;10.57;;;3.10;;
13048;SDS011;6591;51.446;5.404;2023-04-25T06:56:29;5.80;;;2.40;;
13048;SDS011;6591;51.446;5.404;2023-04-25T06:59:08;8.13;;;2.57;;
13048;SDS011;6591;51.446;5.404;2023-04-25T07:01:37;8.27;;;2.93;;
13048;SDS011;6591;51.446;5.404;2023-04-25T07:04:09;6.70;;;2.60;;
13048;SDS011;6591;51.446;5.404;2023-04-25T07:06:42;6.90;;;2.63;;
13048;SDS011;6591;51.446;5.404;2023-04-25T07:09:10;8.10;;;2.23;;
13048;SDS011;6591;51.446;5.404;2023-04-25T07:11:38;6.17;;;2.43;;
13048;SDS011;6591;51.446;5.404;2023-04-25T07:14:06;8.47;;;2.30;;
13048;SDS011;6591;51.446;5.404;2023-04-25T07:16:33;4.23;;;1.97;;
13048;SDS011;6591;51.446;5.404;2023-04-25T07:19:01;7.73;;;2.43;;
13048;SDS011;6591;51.446;5.404;2023-04-25T07:21:28;5.73;;;1.70;;
13048;SDS011;6591;51.446;5.404;2023-04-25T07:23:59;8.13;;;2.00;;
13048;SDS011;6591;51.446;5.404;2023-04-25T07:26:32;5.67;;;2.43;;
13048;SDS011;6591;51.446;5.404;2023-04-25T07:29:15;5.37;;;2.17;;
13048;SDS011;6591;51.446;5.404;2023-04-25T07:31:43;5.57;;;2.33;;
13048;SDS011;6591;51.446;5.404;2023-04-25T07:34:10;5.70;;;2.67;;
13048;SDS011;6591;51.446;5.404;2023-04-25T07:36:37;7.13;;;2.13;;
13048;SDS011;6591;51.446;5.404;2023-04-25T07:39:05;5.23;;;2.07;;
13048;SDS011;6591;51.446;5.404;2023-04-25T07:41:32;6.67;;;2.30;;
13048;SDS011;6591;51.446;5.404;2023-04-25T07:44:00;5.70;;;2.10;;
13048;SDS011;6591;51.446;5.404;2023-04-25T07:46:29;6.17;;;2.30;;
13048;SDS011;6591;51.446;5.404;2023-04-25T07:48:57;7.23;;;2.13;;
13048;SDS011;6591;51.446;5.404;2023-04-25T07:51:24;5.60;;;2.13;;
13048;SDS011;6591;51.446;5.404;2023-04-25T07:53:53;5.67;;;2.27;;
13048;SDS011;6591;51.446;5.404;2023-04-25T07:56:20;5.70;;;1.80;;
13048;SDS011;6591;51.446;5.404;2023-04-25T07:58:48;7.00;;;1.97;;
13048;SDS011;6591;51.446;5.404;2023-04-25T08:01:18;9.40;;;2.30;;
13048;SDS011;6591;51.446;5.404;2023-04-25T08:03:54;6.10;;;2.17;;
13048;SDS011;6591;51.446;5.404;2023-04-25T08:06:32;9.20;;;2.30;;
13048;SDS011;6591;51.446;5.404;2023-04-25T08:09:11;5.37;;;2.00;;
13048;SDS011;6591;51.446;5.404;2023-04-25T08:11:40;4.50;;;1.60;;
13048;SDS011;6591;51.446;5.404;2023-04-25T08:14:11;8.27;;;2.30;;
13048;SDS011;6591;51.446;5.404;2023-04-25T08:16:41;8.97;;;2.20;;
13048;SDS011;6591;51.446;5.404;2023-04-25T08:19:09;5.80;;;2.20;;
13048;SDS011;6591;51.446;5.404;2023-04-25T08:21:37;4.73;;;1.97;;
13048;SDS011;6591;51.446;5.404;2023-04-25T08:24:09;5.00;;;2.13;;
13048;SDS011;6591;51.446;5.404;2023-04-25T08:26:38;4.40;;;1.70;;
13048;SDS011;6591;51.446;5.404;2023-04-25T08:29:09;6.10;;;2.47;;
13048;SDS011;6591;51.446;5.404;2023-04-25T08:31:38;6.53;;;2.30;;
13048;SDS011;6591;51.446;5.404;2023-04-25T08:34:07;4.07;;;1.90;;
13048;SDS011;6591;51.446;5.404;2023-04-25T08:36:42;5.30;;;1.90;;
13048;SDS011;6591;51.446;5.404;2023-04-25T08:39:32;10.27;;;2.50;;
13048;SDS011;6591;51.446;5.404;2023-04-25T08:42:19;6.17;;;2.40;;
13048;SDS011;6591;51.446;5.404;2023-04-25T08:44:49;8.60;;;2.70;;
13048;SDS011;6591;51.446;5.404;2023-04-25T08:47:22;5.93;;;2.10;;
13048;SDS011;6591;51.446;5.404;2023-04-25T08:49:55;8.73;;;2.37;;
13048;SDS011;6591;51.446;5.404;2023-04-25T08:52:23;6.73;;;1.90;;
13048;SDS011;6591;51.446;5.404;2023-04-25T08:54:56;4.33;;;2.20;;
13048;SDS011;6591;51.446;5.404;2023-04-25T08:57:28;6.60;;;2.30;;
13048;SDS011;6591;51.446;5.404;2023-04-25T08:59:57;4.93;;;2.30;;
13048;SDS011;6591;51.446;5.404;2023-04-25T09:02:31;4.53;;;1.90;;
13048;SDS011;6591;51.446;5.404;2023-04-25T09:05:02;6.73;;;1.90;;
13048;SDS011;6591;51.446;5.404;2023-04-25T09:07:30;4.73;;;1.93;;
13048;SDS011;6591;51.446;5.404;2023-04-25T09:09:59;6.17;;;1.47;;
13048;SDS011;6591;51.446;5.404;2023-04-25T09:12:33;4.30;;;1.50;;
13048;SDS011;6591;51.446;5.404;2023-04-25T09:15:05;3.90;;;1.57;;
13048;SDS011;6591;51.446;5.404;2023-04-25T09:18:06;7.30;;;1.70;;
13048;SDS011;6591;51.446;5.404;2023-04-25T09:20:42;4.70;;;2.10;;
13048;SDS011;6591;51.446;5.404;2023-04-25T09:23:28;4.50;;;1.90;;
13048;SDS011;6591;51.446;5.404;2023-04-25T09:25:55;6.20;;;1.90;;
13048;SDS011;6591;51.446;5.404;2023-04-25T09:28:23;4.80;;;1.60;;
13048;SDS011;6591;51.446;5.404;2023-04-25T09:30:57;5.30;;;1.50;;
13048;SDS011;6591;51.446;5.404;2023-04-25T09:33:31;6.00;;;2.20;;
13048;SDS011;6591;51.446;5.404;2023-04-25T09:36:07;4.53;;;1.50;;
13048;SDS011;6591;51.446;5.404;2023-04-25T09:38:47;4.13;;;1.40;;
13048;SDS011;6591;51.446;5.404;2023-04-25T09:41:22;3.97;;;1.67;;
13048;SDS011;6591;51.446;5.404;2023-04-25T09:43:53;8.10;;;2.27;;
13048;SDS011;6591;51.446;5.404;2023-04-25T09:46:33;4.63;;;1.60;;
13048;SDS011;6591;51.446;5.404;2023-04-25T09:49:19;3.90;;;1.50;;
13048;SDS011;6591;51.446;5.404;2023-04-25T09:52:04;5.10;;;1.80;;
13048;SDS011;6591;51.446;5.404;2023-04-25T09:54:40;3.57;;;1.53;;
13048;SDS011;6591;51.446;5.404;2023-04-25T09:57:16;4.53;;;2.00;;
13048;SDS011;6591;51.446;5.404;2023-04-25T09:59:54;2.60;;;1.23;;
13048;SDS011;6591;51.446;5.404;2023-04-25T10:02:24;3.73;;;1.40;;
13048;SDS011;6591;51.446;5.404;2023-04-25T10:04:59;3.93;;;1.37;;
13048;SDS011;6591;51.446;5.404;2023-04-25T10:07:37;3.53;;;1.77;;
13048;SDS011;6591;51.446;5.404;2023-04-25T10:10:09;3.77;;;1.57;;
13048;SDS011;6591;51.446;5.404;2023-04-25T10:12:39;4.17;;;1.60;;
13048;SDS011;6591;51.446;5.404;2023-04-25T10:15:10;3.03;;;1.40;;
13048;SDS011;6591;51.446;5.404;2023-04-25T10:17:40;3.83;;;1.60;;
13048;SDS011;6591;51.446;5.404;2023-04-25T10:20:07;3.67;;;1.60;;
13048;SDS011;6591;51.446;5.404;2023-04-25T10:22:38;4.30;;;1.70;;
13048;SDS011;6591;51.446;5.404;2023-04-25T10:25:10;5.20;;;1.87;;
13048;SDS011;6591;51.446;5.404;2023-04-25T10:27:38;4.47;;;1.57;;
13048;SDS011;6591;51.446;5.404;2023-04-25T10:30:10;5.37;;;1.80;;
13048;SDS011;6591;51.446;5.404;2023-04-25T10:32:42;3.93;;;1.67;;
13048;SDS011;6591;51.446;5.404;2023-04-25T10:35:18;2.37;;;1.43;;
13048;SDS011;6591;51.446;5.404;2023-04-25T10:37:58;2.70;;;1.50;;
13048;SDS011;6591;51.446;5.404;2023-04-25T10:40:40;2.70;;;1.27;;
13048;SDS011;6591;51.446;5.404;2023-04-25T10:46:22;5.00;;;1.53;;
13048;SDS011;6591;51.446;5.404;2023-04-25T10:48:56;4.20;;;1.20;;
13048;SDS011;6591;51.446;5.404;2023-04-25T10:51:32;3.73;;;1.57;;
13048;SDS011;6591;51.446;5.404;2023-04-25T10:54:21;2.70;;;1.20;;
13048;SDS011;6591;51.446;5.404;2023-04-25T10:56:51;4.33;;;1.53;;
13048;SDS011;6591;51.446;5.404;2023-04-25T10:59:19;3.83;;;1.40;;
13048;SDS011;6591;51.446;5.404;2023-04-25T11:01:51;4.67;;;1.50;;
13048;SDS011;6591;51.446;5.404;2023-04-25T11:10:11;4.45;;;1.60;;
13048;SDS011;6591;51.446;5.404;2023-04-25T11:12:38;4.93;;;1.43;;
13048;SDS011;6591;51.446;5.404;2023-04-25T11:15:06;6.35;;;1.50;;
13048;SDS011;6591;51.446;5.404;2023-04-25T11:17:34;2.43;;;1.20;;
13048;SDS011;6591;51.446;5.404;2023-04-25T11:20:02;3.57;;;1.57;;
13048;SDS011;6591;51.446;5.404;2023-04-25T11:22:33;2.33;;;1.08;;
13048;SDS011;6591;51.446;5.404;2023-04-25T11:25:10;4.67;;;1.63;;
13048;SDS011;6591;51.446;5.404;2023-04-25T11:27:49;3.20;;;1.33;;
13048;SDS011;6591;51.446;5.404;2023-04-25T11:30:22;4.80;;;1.60;;
13048;SDS011;6591;51.446;5.404;2023-04-25T11:32:51;5.13;;;1.40;;
13048;SDS011;6591;51.446;5.404;2023-04-25T11:35:19;4.27;;;1.73;;
13048;SDS011;6591;51.446;5.404;2023-04-25T11:37:49;2.93;;;1.27;;
13048;SDS011;6591;51.446;5.404;2023-04-25T11:40:16;4.57;;;1.50;;
13048;SDS011;6591;51.446;5.404;2023-04-25T11:42:44;3.23;;;1.30;;
13048;SDS011;6591;51.446;5.404;2023-04-25T11:45:13;7.63;;;1.50;;
13048;SDS011;6591;51.446;5.404;2023-04-25T11:47:41;4.37;;;1.50;;
13048;SDS011;6591;51.446;5.404;2023-04-25T11:50:08;3.40;;;1.43;;
13048;SDS011;6591;51.446;5.404;2023-04-25T11:52:37;3.50;;;1.30;;
13048;SDS011;6591;51.446;5.404;2023-04-25T11:55:15;4.90;;;1.43;;
13048;SDS011;6591;51.446;5.404;2023-04-25T11:57:49;3.23;;;1.37;;
13048;SDS011;6591;51.446;5.404;2023-04-25T12:00:19;3.50;;;1.33;;
13048;SDS011;6591;51.446;5.404;2023-04-25T12:02:52;2.83;;;1.20;;
13048;SDS011;6591;51.446;5.404;2023-04-25T12:05:28;2.33;;;1.03;;
13048;SDS011;6591;51.446;5.404;2023-04-25T12:08:12;3.13;;;1.27;;
13048;SDS011;6591;51.446;5.404;2023-04-25T12:10:42;3.60;;;1.50;;
13048;SDS011;6591;51.446;5.404;2023-04-25T12:15:54;3.83;;;1.40;;
13048;SDS011;6591;51.446;5.404;2023-04-25T12:18:23;2.10;;;1.10;;
13048;SDS011;6591;51.446;5.404;2023-04-25T12:20:54;3.70;;;1.23;;
13048;SDS011;6591;51.446;5.404;2023-04-25T12:23:27;3.77;;;1.03;;
13048;SDS011;6591;51.446;5.404;2023-04-25T12:25:56;2.10;;;0.93;;
13048;SDS011;6591;51.446;5.404;2023-04-25T12:28:24;2.70;;;1.20;;
13048;SDS011;6591;51.446;5.404;2023-04-25T12:33:36;2.73;;;1.10;;
13048;SDS011;6591;51.446;5.404;2023-04-25T12:36:05;4.80;;;1.40;;
13048;SDS011;6591;51.446;5.404;2023-04-25T12:38:38;2.63;;;1.13;;
13048;SDS011;6591;51.446;5.404;2023-04-25T12:41:08;3.93;;;1.43;;
13048;SDS011;6591;51.446;5.404;2023-04-25T12:43:35;2.53;;;1.20;;
13048;SDS011;6591;51.446;5.404;2023-04-25T12:46:02;2.00;;;1.30;;
13048;SDS011;6591;51.446;5.404;2023-04-25T12:48:29;3.13;;;1.07;;
13048;SDS011;6591;51.446;5.404;2023-04-25T12:50:56;2.37;;;1.13;;
13048;SDS011;6591;51.446;5.404;2023-04-25T12:53:23;2.57;;;1.20;;
13048;SDS011;6591;51.446;5.404;2023-04-25T12:55:50;1.60;;;1.00;;
13048;SDS011;6591;51.446;5.404;2023-04-25T12:58:18;1.50;;;0.97;;
13048;SDS011;6591;51.446;5.404;2023-04-25T13:00:46;2.33;;;0.93;;
13048;SDS011;6591;51.446;5.404;2023-04-25T13:03:14;2.43;;;1.43;;
13048;SDS011;6591;51.446;5.404;2023-04-25T13:05:41;4.77;;;1.30;;
13048;SDS011;6591;51.446;5.404;2023-04-25T13:08:08;2.20;;;1.20;;
13048;SDS011;6591;51.446;5.404;2023-04-25T13:10:35;2.40;;;1.00;;
13048;SDS011;6591;51.446;5.404;2023-04-25T13:13:04;3.23;;;1.30;;
13048;SDS011;6591;51.446;5.404;2023-04-25T13:15:31;2.23;;;1.07;;
13048;SDS011;6591;51.446;5.404;2023-04-25T13:17:58;2.37;;;1.00;;
13048;SDS011;6591;51.446;5.404;2023-04-25T13:20:25;4.30;;;1.20;;
13048;SDS011;6591;51.446;5.404;2023-04-25T13:22:52;4.73;;;1.33;;
13048;SDS011;6591;51.446;5.404;2023-04-25T13:25:19;3.33;;;1.27;;
13048;SDS011;6591;51.446;5.404;2023-04-25T13:27:48;3.87;;;1.30;;
13048;SDS011;6591;51.446;5.404;2023-04-25T13:30:15;2.07;;;1.07;;
13048;SDS011;6591;51.446;5.404;2023-04-25T13:32:42;2.53;;;1.17;;
13048;SDS011;6591;51.446;5.404;2023-04-25T13:35:10;2.83;;;1.40;;
13048;SDS011;6591;51.446;5.404;2023-04-25T13:37:40;2.73;;;1.20;;
13048;SDS011;6591;51.446;5.404;2023-04-25T13:40:08;2.73;;;1.23;;
13048;SDS011;6591;51.446;5.404;2023-04-25T13:42:37;2.47;;;1.10;;
13048;SDS011;6591;51.446;5.404;2023-04-25T13:45:06;4.07;;;1.17;;
13048;SDS011;6591;51.446;5.404;2023-04-25T13:47:34;5.07;;;1.30;;
13048;SDS011;6591;51.446;5.404;2023-04-25T13:50:02;5.43;;;1.23;;
13048;SDS011;6591;51.446;5.404;2023-04-25T13:52:31;4.50;;;1.20;;
13048;SDS011;6591;51.446;5.404;2023-04-25T13:54:59;5.10;;;1.60;;
13048;SDS011;6591;51.446;5.404;2023-04-25T13:57:26;4.83;;;1.43;;
13048;SDS011;6591;51.446;5.404;2023-04-25T13:59:54;4.03;;;1.27;;
13048;SDS011;6591;51.446;5.404;2023-04-25T14:02:21;4.30;;;1.63;;
13048;SDS011;6591;51.446;5.404;2023-04-25T14:04:48;3.43;;;1.30;;
13048;SDS011;6591;51.446;5.404;2023-04-25T14:07:15;2.90;;;1.30;;
13048;SDS011;6591;51.446;5.404;2023-04-25T14:09:42;2.90;;;1.27;;
13048;SDS011;6591;51.446;5.404;2023-04-25T14:12:09;4.50;;;1.30;;
13048;SDS011;6591;51.446;5.404;2023-04-25T14:14:37;2.15;;;1.20;;
13048;SDS011;6591;51.446;5.404;2023-04-25T14:17:04;4.18;;;1.27;;
13048;SDS011;6591;51.446;5.404;2023-04-25T14:19:32;3.88;;;1.60;;
13048;SDS011;6591;51.446;5.404;2023-04-25T14:21:59;3.83;;;1.50;;
13048;SDS011;6591;51.446;5.404;2023-04-25T14:24:26;3.13;;;1.48;;
13048;SDS011;6591;51.446;5.404;2023-04-25T14:26:53;3.88;;;1.50;;
13048;SDS011;6591;51.446;5.404;2023-04-25T14:29:20;4.45;;;1.63;;
13048;SDS011;6591;51.446;5.404;2023-04-25T14:31:47;4.70;;;1.50;;
13048;SDS011;6591;51.446;5.404;2023-04-25T14:34:15;3.27;;;1.43;;
13048;SDS011;6591;51.446;5.404;2023-04-25T14:36:42;3.00;;;1.53;;
13048;SDS011;6591;51.446;5.404;2023-04-25T14:39:09;5.03;;;1.17;;
13048;SDS011;6591;51.446;5.404;2023-04-25T14:41:36;3.23;;;1.37;;
13048;SDS011;6591;51.446;5.404;2023-04-25T14:44:04;2.90;;;1.03;;
13048;SDS011;6591;51.446;5.404;2023-04-25T14:46:31;2.20;;;1.40;;
13048;SDS011;6591;51.446;5.404;2023-04-25T14:48:58;4.10;;;1.50;;
13048;SDS011;6591;51.446;5.404;2023-04-25T14:51:26;3.77;;;1.30;;
13048;SDS011;6591;51.446;5.404;2023-04-25T14:53:53;3.37;;;1.17;;
13048;SDS011;6591;51.446;5.404;2023-04-25T14:56:21;2.37;;;1.00;;
13048;SDS011;6591;51.446;5.404;2023-04-25T14:58:49;6.10;;;1.47;;
13048;SDS011;6591;51.446;5.404;2023-04-25T15:01:16;4.43;;;1.38;;
13048;SDS011;6591;51.446;5.404;2023-04-25T15:03:43;1.93;;;0.97;;
13048;SDS011;6591;51.446;5.404;2023-04-25T15:06:10;2.00;;;1.20;;
13048;SDS011;6591;51.446;5.404;2023-04-25T15:08:37;2.80;;;1.20;;
13048;SDS011;6591;51.446;5.404;2023-04-25T15:11:04;4.40;;;1.55;;
13048;SDS011;6591;51.446;5.404;2023-04-25T15:13:31;2.85;;;1.17;;
13048;SDS011;6591;51.446;5.404;2023-04-25T15:15:58;2.42;;;1.30;;
13048;SDS011;6591;51.446;5.404;2023-04-25T15:18:25;2.45;;;1.02;;
13048;SDS011;6591;51.446;5.404;2023-04-25T15:20:53;2.90;;;1.48;;
13048;SDS011;6591;51.446;5.404;2023-04-25T15:23:22;3.10;;;1.35;;
13048;SDS011;6591;51.446;5.404;2023-04-25T15:25:51;2.60;;;1.17;;
13048;SDS011;6591;51.446;5.404;2023-04-25T15:29:08;4.00;;;1.40;;
13048;SDS011;6591;51.446;5.404;2023-04-25T15:32:48;2.05;;;1.30;;
13048;SDS011;6591;51.446;5.404;2023-04-25T15:35:17;1.95;;;1.15;;
13048;SDS011;6591;51.446;5.404;2023-04-25T15:37:44;4.00;;;1.13;;